createdAt,value
2023-07-21T00:01:06.238Z,100707.81
2023-07-21T00:03:36.321Z,100769.97
2023-07-21T00:06:07.765Z,100700.56
2023-07-21T00:08:39.059Z,100709.56
2023-07-21T00:11:06.528Z,100718.59
2023-07-21T00:13:36.355Z,100741.25
2023-07-21T00:16:05.829Z,100731.38
2023-07-21T00:18:33.843Z,100725.19
2023-07-21T00:21:01.348Z,100730.16
2023-07-21T00:23:28.460Z,100707.53
2023-07-21T00:25:56.286Z,100737.69
2023-07-21T00:28:24.029Z,100734.66
2023-07-21T00:30:51.871Z,100722.06
2023-07-21T00:33:19.289Z,100720.19
2023-07-21T00:35:46.292Z,100696.97
2023-07-21T00:38:13.235Z,100714.19
2023-07-21T00:40:40.300Z,100709.09
2023-07-21T00:43:10.440Z,100683.59
2023-07-21T00:45:39.126Z,100686.19
2023-07-21T00:48:08.870Z,100697.72
2023-07-21T00:50:52.047Z,100706.91
2023-07-21T00:53:20.740Z,100708.88
2023-07-21T00:55:49.514Z,100700.50
2023-07-21T00:58:19.429Z,100709.94
2023-07-21T01:00:47.510Z,100704.38
2023-07-21T01:03:17.330Z,100703.50
2023-07-21T01:05:53.302Z,100701.66
2023-07-21T01:08:23.456Z,100690.72
2023-07-21T01:10:52.409Z,100674.63
2023-07-21T01:13:22.107Z,100698.94
2023-07-21T01:15:54.208Z,100675.25
2023-07-21T01:18:22.203Z,100685.81
2023-07-21T01:20:50.479Z,100636.81
2023-07-21T01:23:55.331Z,100675.41
2023-07-21T01:26:23.666Z,100667.19
2023-07-21T01:28:51.071Z,100639.69
2023-07-21T01:31:20.345Z,100665.66
2023-07-21T01:33:47.843Z,100648.84
2023-07-21T01:36:16.368Z,100652.91
2023-07-21T01:38:44.948Z,100643.69
2023-07-21T01:41:14.326Z,100649.59
2023-07-21T01:43:41.561Z,100644.28
2023-07-21T01:46:12.277Z,100655.38
2023-07-21T01:48:39.422Z,100630.69
2023-07-21T01:51:07.630Z,100648.94
2023-07-21T01:53:37.393Z,100651.28
2023-07-21T01:56:08.257Z,100640.41
2023-07-21T01:58:37.079Z,100644.81
2023-07-21T02:01:05.445Z,100626.97
2023-07-21T02:03:33.797Z,100655.06
2023-07-21T02:06:00.929Z,100648.63
2023-07-21T02:08:27.930Z,100640.94
2023-07-21T02:10:55.117Z,100654.78
2023-07-21T02:13:35.748Z,100657.66
2023-07-21T02:16:03.105Z,100640.56
2023-07-21T02:18:30.945Z,100653.94
2023-07-21T02:21:03.965Z,100651.44
2023-07-21T02:23:32.409Z,100639.72
2023-07-21T02:26:00.325Z,100640.09
2023-07-21T02:28:28.026Z,100602.25
2023-07-21T02:31:07.756Z,100640.25
2023-07-21T02:33:35.325Z,100627.31
2023-07-21T02:36:05.064Z,100625.44
2023-07-21T02:38:32.041Z,100627.13
2023-07-21T02:41:06.145Z,100621.34
2023-07-21T02:43:34.430Z,100594.59
2023-07-21T02:46:02.140Z,100620.75
2023-07-21T02:48:31.391Z,100612.41
2023-07-21T02:50:59.893Z,100614.91
2023-07-21T02:53:27.447Z,100599.00
2023-07-21T02:56:01.620Z,100605.91
2023-07-21T02:58:29.342Z,100601.66
2023-07-21T03:00:57.202Z,100611.69
2023-07-21T03:03:33.563Z,100562.72
2023-07-21T03:06:07.827Z,100567.25
2023-07-21T03:08:35.406Z,100590.97
2023-07-21T03:11:07.741Z,100594.03
2023-07-21T03:13:46.690Z,100594.69
2023-07-21T03:16:14.945Z,100574.50
2023-07-21T03:18:48.910Z,100602.84
2023-07-21T03:21:18.828Z,100597.56
2023-07-21T03:23:46.860Z,100597.78
2023-07-21T03:26:18.812Z,100592.41
2023-07-21T03:28:45.772Z,100606.91
2023-07-21T03:31:13.399Z,100613.50
2023-07-21T03:33:49.098Z,100618.69
2023-07-21T03:36:22.193Z,100610.91
2023-07-21T03:38:49.424Z,100619.22
2023-07-21T03:41:17.970Z,100621.81
2023-07-21T03:43:45.114Z,100594.75
2023-07-21T03:46:13.560Z,100585.75
2023-07-21T03:48:58.229Z,100595.56
2023-07-21T03:51:26.262Z,100607.06
2023-07-21T03:53:53.239Z,100601.50
2023-07-21T03:56:24.470Z,100603.59
2023-07-21T03:58:54.759Z,100604.56
2023-07-21T04:01:21.760Z,100609.75
2023-07-21T04:03:49.185Z,100599.91
2023-07-21T04:06:19.104Z,100596.56
2023-07-21T04:08:46.082Z,100585.16
2023-07-21T04:11:13.034Z,100588.44
2023-07-21T04:13:39.994Z,100584.16
2023-07-21T04:16:07.065Z,100563.97
2023-07-21T04:18:34.333Z,100587.72
2023-07-21T04:21:03.548Z,100580.28
2023-07-21T04:23:30.775Z,100590.41
2023-07-21T04:25:58.547Z,100582.41
2023-07-21T04:28:25.730Z,100590.25
2023-07-21T04:30:57.355Z,100580.09
2023-07-21T04:33:24.914Z,100588.63
2023-07-21T04:35:52.963Z,100583.53
2023-07-21T04:38:24.429Z,100591.75
2023-07-21T04:40:58.189Z,100599.56
2023-07-21T04:43:25.346Z,100592.50
2023-07-21T04:45:52.378Z,100598.78
2023-07-21T04:48:29.855Z,100583.72
2023-07-21T04:50:57.793Z,100591.56
2023-07-21T04:53:25.322Z,100564.47
2023-07-21T04:55:59.297Z,100619.75
2023-07-21T04:58:29.408Z,100586.13
2023-07-21T05:00:57.241Z,100602.91
2023-07-21T05:03:25.127Z,100598.31
2023-07-21T05:05:52.260Z,100576.34
2023-07-21T05:08:21.496Z,100586.53
2023-07-21T05:10:49.145Z,100589.78
2023-07-21T05:13:17.866Z,100573.16
2023-07-21T05:16:03.590Z,100593.91
2023-07-21T05:18:42.484Z,100590.81
2023-07-21T05:21:25.317Z,100584.47
2023-07-21T05:23:58.764Z,100577.66
2023-07-21T05:26:26.252Z,100584.63
2023-07-21T05:28:55.386Z,100584.28
2023-07-21T05:31:36.870Z,100580.09
2023-07-21T05:34:16.515Z,100579.59
2023-07-21T05:36:44.006Z,100568.31
2023-07-21T05:39:11.195Z,100574.97
2023-07-21T05:41:38.351Z,100563.41
2023-07-21T05:44:06.141Z,100581.97
2023-07-21T05:46:40.316Z,100569.91
2023-07-21T05:49:08.964Z,100554.13
2023-07-21T05:51:36.449Z,100564.69
2023-07-21T05:54:14.530Z,100559.25
2023-07-21T05:56:41.656Z,100541.94
2023-07-21T05:59:15.240Z,100554.81
2023-07-21T06:01:42.531Z,100554.06
2023-07-21T06:04:10.164Z,100579.66
2023-07-21T06:06:38.813Z,100578.50
2023-07-21T06:09:35.445Z,100537.09
2023-07-21T06:12:28.394Z,100576.09
2023-07-21T06:15:21.347Z,100563.19
2023-07-21T06:18:05.432Z,100559.94
2023-07-21T06:20:33.769Z,100553.47
2023-07-21T06:23:02.094Z,100561.00
2023-07-21T06:25:30.637Z,100560.72
2023-07-21T06:28:05.280Z,100547.59
2023-07-21T06:30:32.315Z,100539.97
2023-07-21T06:32:59.405Z,100523.09
2023-07-21T06:35:44.947Z,100573.56
2023-07-21T06:38:30.551Z,100513.03
2023-07-21T06:41:21.096Z,100541.03
2023-07-21T06:43:53.124Z,100528.41
2023-07-21T06:46:37.268Z,100540.19
2023-07-21T06:49:04.745Z,100503.38
2023-07-21T06:51:54.424Z,100538.97
2023-07-21T06:54:21.435Z,100534.84
2023-07-21T06:56:49.935Z,100527.00
2023-07-21T06:59:17.372Z,100537.19
2023-07-21T07:01:44.878Z,100523.53
2023-07-21T07:04:12.441Z,100541.41
2023-07-21T07:06:39.644Z,100529.44
2023-07-21T07:09:09.783Z,100546.16
2023-07-21T07:11:36.807Z,100534.94
2023-07-21T07:14:03.837Z,100524.88
2023-07-21T07:16:32.053Z,100547.13
2023-07-21T07:18:59.373Z,100540.84
2023-07-21T07:21:26.727Z,100539.91
2023-07-21T07:23:54.012Z,100528.13
2023-07-21T07:26:22.824Z,100539.25
2023-07-21T07:28:49.820Z,100534.13
2023-07-21T07:31:17.015Z,100522.84
2023-07-21T07:33:45.947Z,100533.13
2023-07-21T07:36:13.424Z,100522.03
2023-07-21T07:38:40.519Z,100513.19
2023-07-21T07:41:10.814Z,100515.13
2023-07-21T07:43:38.429Z,100533.66
2023-07-21T07:46:08.638Z,100532.38
2023-07-21T07:48:36.388Z,100522.50
2023-07-21T07:51:08.658Z,100510.69
2023-07-21T07:53:37.132Z,100525.72
2023-07-21T07:56:05.152Z,100510.63
2023-07-21T07:58:32.782Z,100534.97
2023-07-21T08:01:02.783Z,100529.59
2023-07-21T08:03:32.523Z,100507.88
2023-07-21T08:06:00.399Z,100514.13
2023-07-21T08:08:27.449Z,100526.19
2023-07-21T08:10:54.578Z,100510.91
2023-07-21T08:13:22.911Z,100496.56
2023-07-21T08:15:50.075Z,100528.56
2023-07-21T08:18:17.202Z,100529.69
2023-07-21T08:20:44.706Z,100516.22
2023-07-21T08:23:27.519Z,100520.25
2023-07-21T08:25:56.158Z,100511.44
2023-07-21T08:28:23.202Z,100511.09
2023-07-21T08:30:58.263Z,100500.94
2023-07-21T08:33:30.450Z,100513.19
2023-07-21T08:35:57.499Z,100511.22
2023-07-21T08:38:25.778Z,100504.41
2023-07-21T08:41:03.640Z,100526.19
2023-07-21T08:43:31.024Z,100493.25
2023-07-21T08:46:06.916Z,100514.41
2023-07-21T08:48:35.264Z,100509.53
2023-07-21T08:51:04.658Z,100526.38
2023-07-21T08:53:32.154Z,100513.53
2023-07-21T08:56:01.813Z,100513.25
2023-07-21T08:58:29.806Z,100503.41
2023-07-21T09:00:58.892Z,100511.59
2023-07-21T09:03:28.706Z,100486.19
2023-07-21T09:05:58.797Z,100513.81
2023-07-21T09:08:29.161Z,100463.81
2023-07-21T09:11:04.381Z,100498.28
2023-07-21T09:13:33.264Z,100504.53
2023-07-21T09:16:05.366Z,100503.59
2023-07-21T09:18:45.338Z,100502.13
2023-07-21T09:21:25.447Z,100492.47
2023-07-21T09:24:01.701Z,100489.13
2023-07-21T09:26:28.989Z,100496.19
2023-07-21T09:28:56.196Z,100491.31
2023-07-21T09:31:34.686Z,100498.50
2023-07-21T09:34:13.321Z,100494.91
2023-07-21T09:36:46.922Z,100489.41
2023-07-21T09:39:16.876Z,100494.03
2023-07-21T09:41:45.645Z,100489.81
2023-07-21T09:44:14.677Z,100478.59
2023-07-21T09:46:42.570Z,100497.03
2023-07-21T09:49:09.637Z,100488.78
2023-07-21T09:51:38.997Z,100468.81
2023-07-21T09:54:08.033Z,100488.97
2023-07-21T09:56:38.885Z,100453.19
2023-07-21T09:59:08.540Z,100460.38
2023-07-21T10:01:35.958Z,100478.41
2023-07-21T10:04:04.060Z,100484.53
2023-07-21T10:06:33.790Z,100497.88
2023-07-21T10:09:04.326Z,100482.19
2023-07-21T10:11:31.362Z,100491.13
2023-07-21T10:13:58.441Z,100472.03
2023-07-21T10:16:29.290Z,100477.34
2023-07-21T10:19:13.354Z,100480.06
2023-07-21T10:21:55.601Z,100463.94
2023-07-21T10:24:33.550Z,100474.69
2023-07-21T10:27:06.882Z,100459.31
2023-07-21T10:29:34.624Z,100470.69
2023-07-21T10:32:07.137Z,100468.16
2023-07-21T10:34:41.221Z,100473.50
2023-07-21T10:37:08.578Z,100475.19
2023-07-21T10:39:39.938Z,100470.06
2023-07-21T10:42:08.636Z,100483.31
2023-07-21T10:44:40.078Z,100476.13
2023-07-21T10:47:14.337Z,100461.09
2023-07-21T10:49:41.538Z,100457.63
2023-07-21T10:52:09.928Z,100458.69
2023-07-21T10:54:38.177Z,100454.22
2023-07-21T10:57:06.060Z,100456.97
2023-07-21T10:59:35.764Z,100468.22
2023-07-21T11:02:07.830Z,100470.50
2023-07-21T11:04:34.980Z,100469.91
2023-07-21T11:07:02.609Z,100450.00
2023-07-21T11:09:35.556Z,100446.59
2023-07-21T11:12:05.249Z,100456.56
2023-07-21T11:14:32.642Z,100427.56
2023-07-21T11:17:04.859Z,100460.78
2023-07-21T11:19:34.945Z,100461.41
2023-07-21T11:22:05.193Z,100458.94
2023-07-21T11:24:33.956Z,100433.28
2023-07-21T11:27:09.669Z,100457.66
2023-07-21T11:29:46.361Z,100447.41
2023-07-21T11:32:24.984Z,100452.19
2023-07-21T11:34:57.543Z,100456.09
2023-07-21T11:37:24.708Z,100445.56
2023-07-21T11:39:59.127Z,100438.69
2023-07-21T11:42:26.837Z,100451.31
2023-07-21T11:44:54.287Z,100453.91
2023-07-21T11:47:21.843Z,100447.84
2023-07-21T11:49:53.933Z,100448.44
2023-07-21T11:52:28.479Z,100441.88
2023-07-21T11:54:58.771Z,100445.88
2023-07-21T11:57:26.053Z,100442.91
2023-07-21T11:59:53.098Z,100431.88
2023-07-21T12:02:24.089Z,100440.81
2023-07-21T12:04:51.752Z,100438.88
2023-07-21T12:07:19.006Z,100449.03
2023-07-21T12:09:46.984Z,100413.59
2023-07-21T12:12:14.044Z,100437.47
2023-07-21T12:14:41.057Z,100440.44
2023-07-21T12:17:08.384Z,100440.41
2023-07-21T12:19:36.076Z,100449.81
2023-07-21T12:22:03.344Z,100441.84
2023-07-21T12:24:30.518Z,100439.34
2023-07-21T12:26:57.737Z,100446.50
2023-07-21T12:29:44.126Z,100437.22
2023-07-21T12:32:12.261Z,100446.84
2023-07-21T12:34:39.577Z,100441.19
2023-07-21T12:37:06.965Z,100449.94
2023-07-21T12:39:34.051Z,100457.63
2023-07-21T12:42:01.163Z,100438.34
2023-07-21T12:44:28.281Z,100430.88
2023-07-21T12:46:55.254Z,100429.69
2023-07-21T12:49:22.301Z,100410.75
2023-07-21T12:51:51.329Z,100423.28
2023-07-21T12:54:18.374Z,100426.94
2023-07-21T12:56:45.383Z,100408.63
2023-07-21T12:59:13.328Z,100419.59
2023-07-21T13:01:40.458Z,100414.75
2023-07-21T13:04:10.648Z,100391.50
2023-07-21T13:06:43.038Z,100406.06
2023-07-21T13:09:10.562Z,100397.13
2023-07-21T13:11:37.917Z,100406.44
2023-07-21T13:14:04.888Z,100373.81
2023-07-21T13:16:32.070Z,100406.97
2023-07-21T13:18:59.027Z,100409.50
2023-07-21T13:21:26.119Z,100401.50
2023-07-21T13:23:53.099Z,100407.81
2023-07-21T13:26:20.410Z,100407.75
2023-07-21T13:28:47.670Z,100414.28
2023-07-21T13:31:14.748Z,100411.50
2023-07-21T13:33:41.831Z,100413.63
2023-07-21T13:36:11.030Z,100384.47
2023-07-21T13:38:38.225Z,100409.50
2023-07-21T13:41:05.256Z,100411.25
2023-07-21T13:43:32.195Z,100402.94
2023-07-21T13:45:59.247Z,100403.13
2023-07-21T13:48:27.388Z,100398.03
2023-07-21T13:50:54.396Z,100403.50
2023-07-21T13:53:21.368Z,100401.31
2023-07-21T13:55:48.370Z,100391.53
2023-07-21T13:58:15.350Z,100378.72
2023-07-21T14:00:42.297Z,100403.59
2023-07-21T14:03:09.640Z,100408.25
2023-07-21T14:05:36.759Z,100413.06
2023-07-21T14:08:03.859Z,100411.44
2023-07-21T14:10:31.028Z,100408.69
2023-07-21T14:12:57.963Z,100406.38
2023-07-21T14:15:25.776Z,100411.66
2023-07-21T14:17:52.962Z,100419.06
2023-07-21T14:20:20.016Z,100415.66
2023-07-21T14:22:46.981Z,100413.78
2023-07-21T14:25:13.976Z,100402.38
2023-07-21T14:27:41.728Z,100402.78
2023-07-21T14:30:09.568Z,100380.13
2023-07-21T14:32:36.671Z,100408.28
2023-07-21T14:35:04.021Z,100402.34
2023-07-21T14:37:31.306Z,100412.63
2023-07-21T14:39:58.356Z,100417.56
2023-07-21T14:42:25.352Z,100386.09
2023-07-21T14:44:52.981Z,100416.56
2023-07-21T14:47:20.792Z,100417.59
2023-07-21T14:49:47.815Z,100416.72
2023-07-21T14:52:14.918Z,100417.53
2023-07-21T14:54:41.842Z,100417.00
2023-07-21T14:57:12.224Z,100407.94
2023-07-21T14:59:39.203Z,100409.53
2023-07-21T15:02:06.827Z,100403.81
2023-07-21T15:04:33.756Z,100402.50
2023-07-21T15:07:01.888Z,100403.56
2023-07-21T15:09:29.510Z,100394.97
2023-07-21T15:11:56.737Z,100382.00
2023-07-21T15:14:23.717Z,100399.28
2023-07-21T15:16:52.770Z,100399.75
2023-07-21T15:19:22.801Z,100384.50
2023-07-21T15:21:50.875Z,100398.34
2023-07-21T15:24:18.013Z,100393.31
2023-07-21T15:26:45.040Z,100394.91
2023-07-21T15:29:12.104Z,100404.25
2023-07-21T15:31:42.281Z,100410.59
2023-07-21T15:34:09.364Z,100404.69
2023-07-21T15:36:36.350Z,100373.94
2023-07-21T15:39:05.628Z,100371.84
2023-07-21T15:41:33.109Z,100395.56
2023-07-21T15:44:00.039Z,100367.44
2023-07-21T15:46:28.768Z,100392.28
2023-07-21T15:48:56.285Z,100386.06
2023-07-21T15:51:23.562Z,100358.00
2023-07-21T15:53:56.662Z,100362.09
2023-07-21T15:56:30.424Z,100375.84
2023-07-21T15:58:57.414Z,100382.13
2023-07-21T16:01:25.148Z,100380.81
2023-07-21T16:03:53.860Z,100382.44
2023-07-21T16:06:20.906Z,100381.66
2023-07-21T16:08:49.289Z,100391.47
2023-07-21T16:11:16.357Z,100396.34
2023-07-21T16:13:43.292Z,100399.72
2023-07-21T16:16:10.251Z,100404.59
2023-07-21T16:18:37.574Z,100380.00
2023-07-21T16:21:04.645Z,100382.41
2023-07-21T16:23:31.819Z,100401.41
2023-07-21T16:25:59.695Z,100386.09
2023-07-21T16:28:26.669Z,100403.38
2023-07-21T16:30:56.608Z,100398.72
2023-07-21T16:33:23.900Z,100406.59
2023-07-21T16:35:52.161Z,100403.47
2023-07-21T16:38:19.208Z,100407.16
2023-07-21T16:40:46.705Z,100413.09
2023-07-21T16:43:13.838Z,100382.03
2023-07-21T16:45:49.108Z,100420.97
2023-07-21T16:48:16.184Z,100420.06
2023-07-21T16:50:43.208Z,100450.41
2023-07-21T16:53:10.202Z,100420.09
2023-07-21T16:55:37.204Z,100466.00
2023-07-21T16:58:04.159Z,100496.69
2023-07-21T17:00:31.239Z,100524.84
2023-07-21T17:02:58.343Z,100557.22
2023-07-21T17:05:31.866Z,100577.63
2023-07-21T17:07:59.670Z,100577.31
2023-07-21T17:10:26.622Z,100548.28
2023-07-21T17:12:53.601Z,100568.78
2023-07-21T17:15:20.579Z,100576.69
2023-07-21T17:17:47.849Z,100556.09
2023-07-21T17:20:15.508Z,100564.41
2023-07-21T17:22:48.479Z,100576.19
2023-07-21T17:25:17.319Z,100579.91
2023-07-21T17:27:44.296Z,100586.00
2023-07-21T17:30:12.319Z,100567.44
2023-07-21T17:32:40.412Z,100577.41
2023-07-21T17:35:09.481Z,100576.38
2023-07-21T17:37:36.633Z,100553.34
2023-07-21T17:40:09.733Z,100576.25
2023-07-21T17:42:37.555Z,100551.94
2023-07-21T17:45:05.844Z,100571.09
2023-07-21T17:47:33.716Z,100577.44
2023-07-21T17:50:00.933Z,100587.03
2023-07-21T17:52:27.980Z,100587.25
2023-07-21T17:54:55.436Z,100590.44
2023-07-21T17:57:22.728Z,100604.19
2023-07-21T17:59:49.703Z,100595.72
2023-07-21T18:02:17.228Z,100614.75
2023-07-21T18:04:44.198Z,100595.16
2023-07-21T18:07:11.191Z,100596.59
2023-07-21T18:09:39.261Z,100586.78
2023-07-21T18:12:08.111Z,100589.50
2023-07-21T18:14:35.811Z,100573.94
2023-07-21T18:17:03.197Z,100581.56
2023-07-21T18:19:30.216Z,100568.81
2023-07-21T18:21:57.180Z,100575.09
2023-07-21T18:24:24.275Z,100564.88
2023-07-21T18:26:51.296Z,100576.28
2023-07-21T18:29:19.134Z,100572.38
2023-07-21T18:31:46.299Z,100576.63
2023-07-21T18:34:13.361Z,100576.63
2023-07-21T18:36:40.401Z,100571.69
2023-07-21T18:39:07.404Z,100551.78
2023-07-21T18:41:34.422Z,100582.44
2023-07-21T18:44:01.539Z,100589.50
2023-07-21T18:46:28.686Z,100585.94
2023-07-21T18:48:56.459Z,100592.56
2023-07-21T18:51:23.506Z,100590.66
2023-07-21T18:53:50.618Z,100578.41
2023-07-21T18:56:17.640Z,100586.06
2023-07-21T18:58:44.683Z,100587.16
2023-07-21T19:01:11.759Z,100591.66
2023-07-21T19:03:38.789Z,100600.06
2023-07-21T19:06:07.931Z,100589.34
2023-07-21T19:08:35.047Z,100598.44
2023-07-21T19:11:02.064Z,100596.50
2023-07-21T19:13:29.232Z,100584.25
2023-07-21T19:15:56.701Z,100600.94
2023-07-21T19:18:24.611Z,100588.47
2023-07-21T19:20:51.625Z,100586.69
2023-07-21T19:23:18.601Z,100607.97
2023-07-21T19:25:52.445Z,100612.75
2023-07-21T19:28:19.559Z,100613.75
2023-07-21T19:30:46.648Z,100622.44
2023-07-21T19:33:13.760Z,100630.38
2023-07-21T19:35:40.891Z,100625.81
2023-07-21T19:38:08.252Z,100637.13
2023-07-21T19:40:39.114Z,100630.06
2023-07-21T19:43:06.074Z,100636.47
2023-07-21T19:45:40.341Z,100643.69
2023-07-21T19:48:09.242Z,100646.47
2023-07-21T19:50:37.602Z,100649.94
2023-07-21T19:53:04.893Z,100648.00
2023-07-21T19:55:41.074Z,100630.56
2023-07-21T19:58:09.875Z,100640.66
2023-07-21T20:00:42.728Z,100642.16
2023-07-21T20:03:09.973Z,100649.38
2023-07-21T20:05:37.337Z,100641.34
2023-07-21T20:08:04.879Z,100622.47
2023-07-21T20:10:31.903Z,100641.66
2023-07-21T20:12:58.888Z,100646.75
2023-07-21T20:15:25.842Z,100646.69
2023-07-21T20:17:52.901Z,100654.91
2023-07-21T20:20:19.876Z,100668.81
2023-07-21T20:22:46.868Z,100659.19
2023-07-21T20:25:14.094Z,100663.25
2023-07-21T20:27:41.082Z,100663.53
2023-07-21T20:30:09.062Z,100666.44
2023-07-21T20:32:36.118Z,100661.28
2023-07-21T20:35:04.073Z,100665.81
2023-07-21T20:37:31.091Z,100666.25
2023-07-21T20:39:58.055Z,100672.88
2023-07-21T20:42:25.088Z,100678.34
2023-07-21T20:44:52.033Z,100670.94
2023-07-21T20:47:18.993Z,100676.66
2023-07-21T20:49:46.100Z,100687.81
2023-07-21T20:52:13.298Z,100652.69
2023-07-21T20:54:40.347Z,100689.34
2023-07-21T20:57:07.956Z,100686.53
2023-07-21T20:59:39.774Z,100688.09
2023-07-21T21:02:11.685Z,100668.47
2023-07-21T21:04:38.742Z,100694.28
2023-07-21T21:07:06.526Z,100706.88
2023-07-21T21:09:34.740Z,100704.03
2023-07-21T21:12:01.750Z,100704.22
2023-07-21T21:14:28.812Z,100711.63
2023-07-21T21:16:56.000Z,100706.09
2023-07-21T21:19:23.092Z,100708.13
2023-07-21T21:21:50.026Z,100704.41
2023-07-21T21:24:18.727Z,100728.94
2023-07-21T21:26:45.924Z,100714.44
2023-07-21T21:29:13.053Z,100707.84
2023-07-21T21:31:40.240Z,100700.59
2023-07-21T21:34:07.322Z,100713.13
2023-07-21T21:36:34.313Z,100714.13
2023-07-21T21:39:01.644Z,100716.16
2023-07-21T21:41:28.631Z,100725.88
2023-07-21T21:43:55.613Z,100716.63
2023-07-21T21:46:24.431Z,100721.75
2023-07-21T21:48:51.744Z,100726.59
2023-07-21T21:51:18.870Z,100724.88
2023-07-21T21:53:45.886Z,100721.63
2023-07-21T21:56:12.849Z,100733.59
2023-07-21T21:58:40.724Z,100734.44
2023-07-21T22:01:07.898Z,100730.75
2023-07-21T22:03:37.905Z,100741.16
2023-07-21T22:06:05.343Z,100737.16
2023-07-21T22:08:32.453Z,100747.28
2023-07-21T22:10:59.597Z,100736.16
2023-07-21T22:13:26.943Z,100741.28
2023-07-21T22:15:53.990Z,100735.00
2023-07-21T22:18:23.611Z,100743.41
2023-07-21T22:20:50.603Z,100744.97
2023-07-21T22:23:18.452Z,100748.38
2023-07-21T22:25:45.440Z,100738.41
2023-07-21T22:28:12.497Z,100761.06
2023-07-21T22:30:39.977Z,100752.66
2023-07-21T22:33:07.078Z,100760.06
2023-07-21T22:35:34.166Z,100762.63
2023-07-21T22:38:02.134Z,100766.06
2023-07-21T22:40:29.165Z,100766.63
2023-07-21T22:42:56.127Z,100767.47
2023-07-21T22:45:23.123Z,100766.03
2023-07-21T22:47:50.109Z,100776.00
2023-07-21T22:50:17.175Z,100766.16
2023-07-21T22:52:47.245Z,100772.00
2023-07-21T22:55:14.533Z,100768.03
2023-07-21T22:57:41.532Z,100771.59
2023-07-21T23:00:09.438Z,100758.88
2023-07-21T23:02:36.648Z,100733.09
2023-07-21T23:05:04.730Z,100771.75
2023-07-21T23:07:31.933Z,100769.03
2023-07-21T23:09:58.915Z,100778.88
2023-07-21T23:12:27.149Z,100776.03
2023-07-21T23:14:56.011Z,100772.06
2023-07-21T23:17:23.041Z,100777.19
2023-07-21T23:19:50.063Z,100771.34
2023-07-21T23:22:17.125Z,100762.78
2023-07-21T23:24:44.233Z,100780.34
2023-07-21T23:27:11.296Z,100774.75
2023-07-21T23:29:38.323Z,100763.19
2023-07-21T23:32:05.977Z,100784.59
2023-07-21T23:34:34.036Z,100791.72
2023-07-21T23:37:01.087Z,100779.88
2023-07-21T23:39:28.931Z,100785.84
2023-07-21T23:41:56.093Z,100785.28
2023-07-21T23:44:23.109Z,100777.56
2023-07-21T23:46:50.450Z,100751.66
2023-07-21T23:49:17.543Z,100782.81
2023-07-21T23:51:44.601Z,100757.56
2023-07-21T23:54:11.557Z,100781.00
2023-07-21T23:56:38.631Z,100781.25
2023-07-21T23:59:05.543Z,100784.53
